sensor_id;sensor_type;location;lat;lon;timestamp;P1;durP1;ratioP1;P2;durP2;ratioP2
33074;SDS011;19433;51.292;6.868;2023-08-31T00:02:05;3.93;;;3.53;;
33074;SDS011;19433;51.292;6.868;2023-08-31T00:04:31;4.27;;;3.87;;
33074;SDS011;19433;51.292;6.868;2023-08-31T00:06:56;7.47;;;4.30;;
33074;SDS011;19433;51.292;6.868;2023-08-31T00:09:22;4.03;;;3.63;;
33074;SDS011;19433;51.292;6.868;2023-08-31T00:11:50;4.40;;;3.80;;
33074;SDS011;19433;51.292;6.868;2023-08-31T00:14:16;4.37;;;4.00;;
33074;SDS011;19433;51.292;6.868;2023-08-31T00:16:42;5.70;;;4.50;;
33074;SDS011;19433;51.292;6.868;2023-08-31T00:19:07;4.07;;;3.67;;
33074;SDS011;19433;51.292;6.868;2023-08-31T00:21:33;6.53;;;3.57;;
33074;SDS011;19433;51.292;6.868;2023-08-31T00:23:58;8.10;;;5.00;;
33074;SDS011;19433;51.292;6.868;2023-08-31T00:26:24;5.70;;;3.93;;
33074;SDS011;19433;51.292;6.868;2023-08-31T00:28:49;8.80;;;4.00;;
33074;SDS011;19433;51.292;6.868;2023-08-31T00:31:15;6.57;;;5.27;;
33074;SDS011;19433;51.292;6.868;2023-08-31T00:33:40;6.13;;;4.10;;
33074;SDS011;19433;51.292;6.868;2023-08-31T00:36:05;6.90;;;3.43;;
33074;SDS011;19433;51.292;6.868;2023-08-31T00:38:31;5.20;;;3.97;;
33074;SDS011;19433;51.292;6.868;2023-08-31T00:40:56;6.97;;;3.90;;
33074;SDS011;19433;51.292;6.868;2023-08-31T00:43:21;8.03;;;4.17;;
33074;SDS011;19433;51.292;6.868;2023-08-31T00:45:48;8.23;;;3.90;;
33074;SDS011;19433;51.292;6.868;2023-08-31T00:48:15;6.47;;;4.17;;
33074;SDS011;19433;51.292;6.868;2023-08-31T00:50:45;11.33;;;5.07;;
33074;SDS011;19433;51.292;6.868;2023-08-31T00:53:11;6.43;;;4.40;;
33074;SDS011;19433;51.292;6.868;2023-08-31T00:55:37;10.20;;;4.13;;
33074;SDS011;19433;51.292;6.868;2023-08-31T00:58:04;6.50;;;4.17;;
33074;SDS011;19433;51.292;6.868;2023-08-31T01:00:39;6.57;;;4.17;;
33074;SDS011;19433;51.292;6.868;2023-08-31T01:03:28;9.23;;;4.50;;
33074;SDS011;19433;51.292;6.868;2023-08-31T01:09:16;6.17;;;3.80;;
33074;SDS011;19433;51.292;6.868;2023-08-31T01:15:09;6.73;;;4.67;;
33074;SDS011;19433;51.292;6.868;2023-08-31T01:17:46;5.40;;;3.87;;
33074;SDS011;19433;51.292;6.868;2023-08-31T01:20:14;7.80;;;4.93;;
33074;SDS011;19433;51.292;6.868;2023-08-31T01:23:04;7.27;;;4.03;;
33074;SDS011;19433;51.292;6.868;2023-08-31T01:25:33;6.90;;;4.53;;
33074;SDS011;19433;51.292;6.868;2023-08-31T01:27:59;8.30;;;4.10;;
33074;SDS011;19433;51.292;6.868;2023-08-31T01:30:29;7.00;;;4.13;;
33074;SDS011;19433;51.292;6.868;2023-08-31T01:32:54;7.80;;;4.73;;
33074;SDS011;19433;51.292;6.868;2023-08-31T01:35:20;6.20;;;4.07;;
33074;SDS011;19433;51.292;6.868;2023-08-31T01:37:50;7.13;;;4.47;;
33074;SDS011;19433;51.292;6.868;2023-08-31T01:40:20;4.30;;;3.90;;
33074;SDS011;19433;51.292;6.868;2023-08-31T01:42:50;8.77;;;3.40;;
33074;SDS011;19433;51.292;6.868;2023-08-31T01:45:20;4.60;;;4.00;;
33074;SDS011;19433;51.292;6.868;2023-08-31T01:47:47;7.73;;;4.83;;
33074;SDS011;19433;51.292;6.868;2023-08-31T01:50:12;6.10;;;5.13;;
33074;SDS011;19433;51.292;6.868;2023-08-31T01:52:38;6.53;;;4.40;;
33074;SDS011;19433;51.292;6.868;2023-08-31T01:55:04;7.47;;;4.77;;
33074;SDS011;19433;51.292;6.868;2023-08-31T01:57:30;10.93;;;4.90;;
33074;SDS011;19433;51.292;6.868;2023-08-31T01:59:56;5.27;;;4.00;;
33074;SDS011;19433;51.292;6.868;2023-08-31T02:02:22;5.17;;;4.77;;
33074;SDS011;19433;51.292;6.868;2023-08-31T02:04:47;6.13;;;4.40;;
33074;SDS011;19433;51.292;6.868;2023-08-31T02:07:12;7.03;;;4.40;;
33074;SDS011;19433;51.292;6.868;2023-08-31T02:09:38;7.63;;;4.07;;
33074;SDS011;19433;51.292;6.868;2023-08-31T02:12:04;7.47;;;4.50;;
33074;SDS011;19433;51.292;6.868;2023-08-31T02:14:29;7.73;;;4.60;;
33074;SDS011;19433;51.292;6.868;2023-08-31T02:16:55;12.73;;;4.93;;
33074;SDS011;19433;51.292;6.868;2023-08-31T02:19:20;4.63;;;4.23;;
33074;SDS011;19433;51.292;6.868;2023-08-31T02:21:45;11.63;;;4.47;;
33074;SDS011;19433;51.292;6.868;2023-08-31T02:24:11;5.60;;;4.57;;
33074;SDS011;19433;51.292;6.868;2023-08-31T02:26:36;8.00;;;4.33;;
33074;SDS011;19433;51.292;6.868;2023-08-31T02:29:02;14.40;;;4.97;;
33074;SDS011;19433;51.292;6.868;2023-08-31T02:31:28;5.07;;;4.57;;
33074;SDS011;19433;51.292;6.868;2023-08-31T02:33:53;6.53;;;4.07;;
33074;SDS011;19433;51.292;6.868;2023-08-31T02:36:18;5.67;;;3.73;;
33074;SDS011;19433;51.292;6.868;2023-08-31T02:38:45;6.47;;;3.60;;
33074;SDS011;19433;51.292;6.868;2023-08-31T02:41:11;4.67;;;3.90;;
33074;SDS011;19433;51.292;6.868;2023-08-31T02:43:36;6.87;;;4.30;;
33074;SDS011;19433;51.292;6.868;2023-08-31T02:46:02;7.90;;;4.27;;
33074;SDS011;19433;51.292;6.868;2023-08-31T02:48:28;6.30;;;4.07;;
33074;SDS011;19433;51.292;6.868;2023-08-31T02:50:56;4.50;;;4.10;;
33074;SDS011;19433;51.292;6.868;2023-08-31T02:53:22;7.83;;;3.97;;
33074;SDS011;19433;51.292;6.868;2023-08-31T02:55:47;4.37;;;4.00;;
33074;SDS011;19433;51.292;6.868;2023-08-31T02:58:15;4.57;;;3.87;;
33074;SDS011;19433;51.292;6.868;2023-08-31T03:00:40;4.90;;;3.90;;
33074;SDS011;19433;51.292;6.868;2023-08-31T03:03:07;4.77;;;4.37;;
33074;SDS011;19433;51.292;6.868;2023-08-31T03:05:33;7.60;;;4.17;;
33074;SDS011;19433;51.292;6.868;2023-08-31T03:07:58;4.60;;;3.97;;
33074;SDS011;19433;51.292;6.868;2023-08-31T03:10:24;5.37;;;4.87;;
33074;SDS011;19433;51.292;6.868;2023-08-31T03:12:49;6.13;;;4.70;;
33074;SDS011;19433;51.292;6.868;2023-08-31T03:15:14;4.60;;;4.20;;
33074;SDS011;19433;51.292;6.868;2023-08-31T03:17:40;5.77;;;4.23;;
33074;SDS011;19433;51.292;6.868;2023-08-31T03:20:05;6.43;;;4.27;;
33074;SDS011;19433;51.292;6.868;2023-08-31T03:22:31;5.07;;;4.57;;
33074;SDS011;19433;51.292;6.868;2023-08-31T03:24:57;4.57;;;4.20;;
33074;SDS011;19433;51.292;6.868;2023-08-31T03:27:22;4.40;;;4.00;;
33074;SDS011;19433;51.292;6.868;2023-08-31T03:29:47;5.10;;;4.27;;
33074;SDS011;19433;51.292;6.868;2023-08-31T03:32:12;4.50;;;4.10;;
33074;SDS011;19433;51.292;6.868;2023-08-31T03:34:38;5.37;;;4.43;;
33074;SDS011;19433;51.292;6.868;2023-08-31T03:37:03;4.67;;;3.90;;
33074;SDS011;19433;51.292;6.868;2023-08-31T03:39:28;4.50;;;3.43;;
33074;SDS011;19433;51.292;6.868;2023-08-31T03:41:54;5.10;;;3.90;;
33074;SDS011;19433;51.292;6.868;2023-08-31T03:44:20;5.20;;;4.50;;
33074;SDS011;19433;51.292;6.868;2023-08-31T03:46:46;4.97;;;4.40;;
33074;SDS011;19433;51.292;6.868;2023-08-31T03:49:11;6.10;;;4.27;;
33074;SDS011;19433;51.292;6.868;2023-08-31T03:51:36;4.30;;;3.90;;
33074;SDS011;19433;51.292;6.868;2023-08-31T03:54:02;4.67;;;4.27;;
33074;SDS011;19433;51.292;6.868;2023-08-31T03:56:27;5.13;;;4.57;;
33074;SDS011;19433;51.292;6.868;2023-08-31T03:58:53;6.03;;;4.20;;
33074;SDS011;19433;51.292;6.868;2023-08-31T04:01:18;8.03;;;4.37;;
33074;SDS011;19433;51.292;6.868;2023-08-31T04:03:44;5.07;;;4.57;;
33074;SDS011;19433;51.292;6.868;2023-08-31T04:06:09;4.97;;;3.70;;
33074;SDS011;19433;51.292;6.868;2023-08-31T04:08:35;5.50;;;4.60;;
33074;SDS011;19433;51.292;6.868;2023-08-31T04:11:00;6.10;;;5.43;;
33074;SDS011;19433;51.292;6.868;2023-08-31T04:13:25;5.20;;;4.63;;
33074;SDS011;19433;51.292;6.868;2023-08-31T04:15:51;5.20;;;4.80;;
33074;SDS011;19433;51.292;6.868;2023-08-31T04:18:18;6.97;;;5.30;;
33074;SDS011;19433;51.292;6.868;2023-08-31T04:20:48;6.30;;;5.70;;
33074;SDS011;19433;51.292;6.868;2023-08-31T04:23:14;6.03;;;5.47;;
33074;SDS011;19433;51.292;6.868;2023-08-31T04:25:39;7.60;;;5.13;;
33074;SDS011;19433;51.292;6.868;2023-08-31T04:28:04;6.00;;;4.63;;
33074;SDS011;19433;51.292;6.868;2023-08-31T04:30:30;7.83;;;5.13;;
33074;SDS011;19433;51.292;6.868;2023-08-31T04:32:56;6.50;;;4.93;;
33074;SDS011;19433;51.292;6.868;2023-08-31T04:35:21;13.80;;;5.23;;
33074;SDS011;19433;51.292;6.868;2023-08-31T04:37:47;8.13;;;4.87;;
33074;SDS011;19433;51.292;6.868;2023-08-31T04:40:13;13.63;;;5.43;;
33074;SDS011;19433;51.292;6.868;2023-08-31T04:42:38;8.30;;;5.53;;
33074;SDS011;19433;51.292;6.868;2023-08-31T04:45:03;9.10;;;5.53;;
33074;SDS011;19433;51.292;6.868;2023-08-31T04:47:30;5.60;;;5.13;;
33074;SDS011;19433;51.292;6.868;2023-08-31T04:49:55;7.13;;;5.60;;
33074;SDS011;19433;51.292;6.868;2023-08-31T04:55:36;7.73;;;5.63;;
33074;SDS011;19433;51.292;6.868;2023-08-31T04:58:02;6.13;;;5.63;;
33074;SDS011;19433;51.292;6.868;2023-08-31T05:00:28;9.43;;;5.73;;
33074;SDS011;19433;51.292;6.868;2023-08-31T05:08:51;6.60;;;5.90;;
33074;SDS011;19433;51.292;6.868;2023-08-31T05:11:16;6.70;;;6.10;;
33074;SDS011;19433;51.292;6.868;2023-08-31T05:13:41;6.93;;;6.23;;
33074;SDS011;19433;51.292;6.868;2023-08-31T05:16:07;7.67;;;5.77;;
33074;SDS011;19433;51.292;6.868;2023-08-31T05:18:33;6.07;;;5.57;;
33074;SDS011;19433;51.292;6.868;2023-08-31T05:20:59;7.40;;;6.43;;
33074;SDS011;19433;51.292;6.868;2023-08-31T05:23:24;7.50;;;6.57;;
33074;SDS011;19433;51.292;6.868;2023-08-31T05:25:49;6.30;;;5.70;;
33074;SDS011;19433;51.292;6.868;2023-08-31T05:28:15;7.60;;;5.83;;
33074;SDS011;19433;51.292;6.868;2023-08-31T05:30:50;7.77;;;5.73;;
33074;SDS011;19433;51.292;6.868;2023-08-31T05:33:17;8.50;;;6.13;;
33074;SDS011;19433;51.292;6.868;2023-08-31T05:35:42;6.47;;;5.87;;
33074;SDS011;19433;51.292;6.868;2023-08-31T05:38:08;7.63;;;6.50;;
33074;SDS011;19433;51.292;6.868;2023-08-31T05:40:33;7.37;;;6.40;;
33074;SDS011;19433;51.292;6.868;2023-08-31T05:42:58;7.60;;;6.70;;
33074;SDS011;19433;51.292;6.868;2023-08-31T05:45:24;8.50;;;6.40;;
33074;SDS011;19433;51.292;6.868;2023-08-31T05:47:49;7.23;;;6.20;;
33074;SDS011;19433;51.292;6.868;2023-08-31T05:50:14;6.90;;;6.30;;
33074;SDS011;19433;51.292;6.868;2023-08-31T05:52:40;9.40;;;6.90;;
33074;SDS011;19433;51.292;6.868;2023-08-31T05:55:09;7.40;;;6.67;;
33074;SDS011;19433;51.292;6.868;2023-08-31T05:57:34;9.57;;;7.90;;
33074;SDS011;19433;51.292;6.868;2023-08-31T06:00:00;9.20;;;6.87;;
33074;SDS011;19433;51.292;6.868;2023-08-31T06:02:25;8.60;;;7.07;;
33074;SDS011;19433;51.292;6.868;2023-08-31T06:04:50;7.60;;;6.60;;
33074;SDS011;19433;51.292;6.868;2023-08-31T06:07:16;8.17;;;7.37;;
33074;SDS011;19433;51.292;6.868;2023-08-31T06:09:41;8.50;;;7.50;;
33074;SDS011;19433;51.292;6.868;2023-08-31T06:12:06;7.47;;;6.87;;
33074;SDS011;19433;51.292;6.868;2023-08-31T06:14:32;9.07;;;7.80;;
33074;SDS011;19433;51.292;6.868;2023-08-31T06:16:57;8.80;;;7.33;;
33074;SDS011;19433;51.292;6.868;2023-08-31T06:19:23;11.70;;;7.27;;
33074;SDS011;19433;51.292;6.868;2023-08-31T06:21:49;7.83;;;7.13;;
33074;SDS011;19433;51.292;6.868;2023-08-31T06:24:14;7.50;;;6.90;;
33074;SDS011;19433;51.292;6.868;2023-08-31T06:26:40;9.73;;;7.50;;
33074;SDS011;19433;51.292;6.868;2023-08-31T06:29:05;7.30;;;6.70;;
33074;SDS011;19433;51.292;6.868;2023-08-31T06:31:31;8.70;;;6.13;;
33074;SDS011;19433;51.292;6.868;2023-08-31T06:33:56;7.53;;;6.57;;
33074;SDS011;19433;51.292;6.868;2023-08-31T06:36:23;8.30;;;7.50;;
33074;SDS011;19433;51.292;6.868;2023-08-31T06:38:48;12.33;;;7.83;;
33074;SDS011;19433;51.292;6.868;2023-08-31T06:41:13;6.87;;;6.27;;
33074;SDS011;19433;51.292;6.868;2023-08-31T06:43:40;8.80;;;7.20;;
33074;SDS011;19433;51.292;6.868;2023-08-31T06:46:05;7.03;;;6.33;;
33074;SDS011;19433;51.292;6.868;2023-08-31T06:48:31;6.83;;;6.00;;
33074;SDS011;19433;51.292;6.868;2023-08-31T06:50:56;6.23;;;5.63;;
33074;SDS011;19433;51.292;6.868;2023-08-31T06:53:21;5.07;;;4.43;;
33074;SDS011;19433;51.292;6.868;2023-08-31T06:55:46;4.77;;;4.27;;
33074;SDS011;19433;51.292;6.868;2023-08-31T06:58:12;5.07;;;4.17;;
33074;SDS011;19433;51.292;6.868;2023-08-31T07:00:37;3.70;;;3.40;;
33074;SDS011;19433;51.292;6.868;2023-08-31T07:03:03;4.13;;;3.60;;
33074;SDS011;19433;51.292;6.868;2023-08-31T07:05:32;3.60;;;3.30;;
33074;SDS011;19433;51.292;6.868;2023-08-31T07:08:00;6.30;;;3.70;;
33074;SDS011;19433;51.292;6.868;2023-08-31T07:10:26;4.30;;;3.40;;
33074;SDS011;19433;51.292;6.868;2023-08-31T07:12:51;4.20;;;2.80;;
33074;SDS011;19433;51.292;6.868;2023-08-31T07:15:16;4.93;;;3.10;;
33074;SDS011;19433;51.292;6.868;2023-08-31T07:17:42;4.60;;;2.93;;
33074;SDS011;19433;51.292;6.868;2023-08-31T07:20:07;3.80;;;3.00;;
33074;SDS011;19433;51.292;6.868;2023-08-31T07:22:34;5.23;;;2.93;;
33074;SDS011;19433;51.292;6.868;2023-08-31T07:25:00;2.93;;;2.60;;
33074;SDS011;19433;51.292;6.868;2023-08-31T07:27:25;3.33;;;3.00;;
33074;SDS011;19433;51.292;6.868;2023-08-31T07:29:50;3.73;;;3.17;;
33074;SDS011;19433;51.292;6.868;2023-08-31T07:32:16;2.80;;;2.60;;
33074;SDS011;19433;51.292;6.868;2023-08-31T07:34:41;3.90;;;2.40;;
33074;SDS011;19433;51.292;6.868;2023-08-31T07:37:06;3.70;;;2.33;;
33074;SDS011;19433;51.292;6.868;2023-08-31T07:39:32;1.97;;;1.87;;
33074;SDS011;19433;51.292;6.868;2023-08-31T07:41:57;2.50;;;2.30;;
33074;SDS011;19433;51.292;6.868;2023-08-31T07:44:24;2.80;;;2.60;;
33074;SDS011;19433;51.292;6.868;2023-08-31T07:46:49;2.77;;;2.27;;
33074;SDS011;19433;51.292;6.868;2023-08-31T07:49:15;3.37;;;2.57;;
33074;SDS011;19433;51.292;6.868;2023-08-31T07:51:40;4.93;;;2.47;;
33074;SDS011;19433;51.292;6.868;2023-08-31T07:54:05;5.50;;;2.33;;
33074;SDS011;19433;51.292;6.868;2023-08-31T07:56:30;3.10;;;2.70;;
33074;SDS011;19433;51.292;6.868;2023-08-31T07:58:56;3.23;;;2.17;;
33074;SDS011;19433;51.292;6.868;2023-08-31T08:01:21;2.70;;;2.40;;
33074;SDS011;19433;51.292;6.868;2023-08-31T08:03:46;3.23;;;2.30;;
33074;SDS011;19433;51.292;6.868;2023-08-31T08:06:12;3.13;;;2.63;;
33074;SDS011;19433;51.292;6.868;2023-08-31T08:08:37;2.37;;;2.13;;
33074;SDS011;19433;51.292;6.868;2023-08-31T08:11:04;4.03;;;2.70;;
33074;SDS011;19433;51.292;6.868;2023-08-31T08:13:30;2.43;;;2.13;;
33074;SDS011;19433;51.292;6.868;2023-08-31T08:15:55;2.43;;;2.23;;
33074;SDS011;19433;51.292;6.868;2023-08-31T08:18:20;3.10;;;1.77;;
33074;SDS011;19433;51.292;6.868;2023-08-31T08:20:52;2.43;;;2.20;;
33074;SDS011;19433;51.292;6.868;2023-08-31T08:23:18;4.63;;;1.87;;
33074;SDS011;19433;51.292;6.868;2023-08-31T08:25:43;2.10;;;1.87;;
33074;SDS011;19433;51.292;6.868;2023-08-31T08:28:08;3.77;;;2.20;;
33074;SDS011;19433;51.292;6.868;2023-08-31T08:30:34;4.80;;;2.23;;
33074;SDS011;19433;51.292;6.868;2023-08-31T08:32:59;5.37;;;2.57;;
33074;SDS011;19433;51.292;6.868;2023-08-31T08:35:24;4.53;;;2.20;;
33074;SDS011;19433;51.292;6.868;2023-08-31T08:37:50;5.10;;;2.43;;
33074;SDS011;19433;51.292;6.868;2023-08-31T08:40:15;4.20;;;2.10;;
33074;SDS011;19433;51.292;6.868;2023-08-31T08:42:41;3.10;;;2.03;;
33074;SDS011;19433;51.292;6.868;2023-08-31T08:45:08;3.03;;;2.20;;
33074;SDS011;19433;51.292;6.868;2023-08-31T08:47:40;4.03;;;2.40;;
33074;SDS011;19433;51.292;6.868;2023-08-31T08:50:05;3.23;;;2.30;;
33074;SDS011;19433;51.292;6.868;2023-08-31T08:52:31;3.20;;;2.20;;
33074;SDS011;19433;51.292;6.868;2023-08-31T08:54:56;2.10;;;1.90;;
33074;SDS011;19433;51.292;6.868;2023-08-31T08:57:22;3.83;;;2.20;;
33074;SDS011;19433;51.292;6.868;2023-08-31T08:59:48;3.27;;;2.20;;
33074;SDS011;19433;51.292;6.868;2023-08-31T09:02:13;4.20;;;2.10;;
33074;SDS011;19433;51.292;6.868;2023-08-31T09:04:38;3.83;;;1.93;;
33074;SDS011;19433;51.292;6.868;2023-08-31T09:07:04;2.23;;;2.03;;
33074;SDS011;19433;51.292;6.868;2023-08-31T09:09:29;3.03;;;2.13;;
33074;SDS011;19433;51.292;6.868;2023-08-31T09:11:54;3.47;;;2.10;;
33074;SDS011;19433;51.292;6.868;2023-08-31T09:14:23;2.10;;;1.90;;
33074;SDS011;19433;51.292;6.868;2023-08-31T09:16:49;2.03;;;1.93;;
33074;SDS011;19433;51.292;6.868;2023-08-31T09:19:19;4.87;;;2.33;;
33074;SDS011;19433;51.292;6.868;2023-08-31T09:21:47;1.70;;;1.60;;
33074;SDS011;19433;51.292;6.868;2023-08-31T09:24:13;2.47;;;1.90;;
33074;SDS011;19433;51.292;6.868;2023-08-31T09:26:39;10.30;;;2.87;;
33074;SDS011;19433;51.292;6.868;2023-08-31T09:29:05;3.30;;;1.90;;
33074;SDS011;19433;51.292;6.868;2023-08-31T09:31:31;4.53;;;2.10;;
33074;SDS011;19433;51.292;6.868;2023-08-31T09:33:57;3.30;;;1.60;;
33074;SDS011;19433;51.292;6.868;2023-08-31T09:36:22;1.90;;;1.50;;
33074;SDS011;19433;51.292;6.868;2023-08-31T09:38:48;3.80;;;1.93;;
33074;SDS011;19433;51.292;6.868;2023-08-31T09:41:13;2.23;;;1.90;;
33074;SDS011;19433;51.292;6.868;2023-08-31T09:43:40;4.33;;;2.17;;
33074;SDS011;19433;51.292;6.868;2023-08-31T09:46:05;2.40;;;1.87;;
33074;SDS011;19433;51.292;6.868;2023-08-31T09:48:31;3.30;;;1.77;;
33074;SDS011;19433;51.292;6.868;2023-08-31T09:50:57;5.33;;;1.90;;
33074;SDS011;19433;51.292;6.868;2023-08-31T09:53:26;2.40;;;1.50;;
33074;SDS011;19433;51.292;6.868;2023-08-31T09:55:54;2.23;;;1.63;;
33074;SDS011;19433;51.292;6.868;2023-08-31T09:58:21;1.90;;;1.80;;
33074;SDS011;19433;51.292;6.868;2023-08-31T10:00:46;3.47;;;1.67;;
33074;SDS011;19433;51.292;6.868;2023-08-31T10:03:14;1.80;;;1.70;;
33074;SDS011;19433;51.292;6.868;2023-08-31T10:05:43;3.23;;;1.47;;
33074;SDS011;19433;51.292;6.868;2023-08-31T10:08:10;2.43;;;1.80;;
33074;SDS011;19433;51.292;6.868;2023-08-31T10:10:36;2.83;;;1.67;;
33074;SDS011;19433;51.292;6.868;2023-08-31T10:13:04;5.00;;;2.00;;
33074;SDS011;19433;51.292;6.868;2023-08-31T10:15:33;3.30;;;2.43;;
33074;SDS011;19433;51.292;6.868;2023-08-31T10:18:01;2.77;;;1.87;;
33074;SDS011;19433;51.292;6.868;2023-08-31T10:20:28;4.23;;;1.93;;
33074;SDS011;19433;51.292;6.868;2023-08-31T10:22:56;4.30;;;2.00;;
33074;SDS011;19433;51.292;6.868;2023-08-31T10:25:23;8.47;;;1.93;;
33074;SDS011;19433;51.292;6.868;2023-08-31T10:27:48;3.70;;;2.40;;
33074;SDS011;19433;51.292;6.868;2023-08-31T10:35:40;2.90;;;2.20;;
33074;SDS011;19433;51.292;6.868;2023-08-31T10:41:00;5.43;;;2.63;;
33074;SDS011;19433;51.292;6.868;2023-08-31T10:43:28;2.97;;;2.00;;
33074;SDS011;19433;51.292;6.868;2023-08-31T10:48:57;3.50;;;2.37;;
33074;SDS011;19433;51.292;6.868;2023-08-31T10:51:32;4.63;;;2.10;;
33074;SDS011;19433;51.292;6.868;2023-08-31T10:54:04;5.53;;;2.00;;
33074;SDS011;19433;51.292;6.868;2023-08-31T10:56:30;4.13;;;2.10;;
33074;SDS011;19433;51.292;6.868;2023-08-31T10:58:57;2.83;;;1.70;;
33074;SDS011;19433;51.292;6.868;2023-08-31T11:04:18;2.20;;;1.60;;
33074;SDS011;19433;51.292;6.868;2023-08-31T11:06:43;2.67;;;1.87;;
33074;SDS011;19433;51.292;6.868;2023-08-31T11:09:18;3.77;;;2.07;;
33074;SDS011;19433;51.292;6.868;2023-08-31T11:11:44;4.17;;;2.00;;
33074;SDS011;19433;51.292;6.868;2023-08-31T11:14:10;2.83;;;1.93;;
33074;SDS011;19433;51.292;6.868;2023-08-31T11:16:37;3.83;;;2.03;;
33074;SDS011;19433;51.292;6.868;2023-08-31T11:19:03;4.20;;;1.70;;
33074;SDS011;19433;51.292;6.868;2023-08-31T11:21:29;4.23;;;2.10;;
33074;SDS011;19433;51.292;6.868;2023-08-31T11:23:56;4.43;;;1.60;;
33074;SDS011;19433;51.292;6.868;2023-08-31T11:26:23;2.87;;;1.60;;
33074;SDS011;19433;51.292;6.868;2023-08-31T11:28:50;2.33;;;1.60;;
33074;SDS011;19433;51.292;6.868;2023-08-31T11:31:22;3.77;;;2.13;;
33074;SDS011;19433;51.292;6.868;2023-08-31T11:33:51;3.30;;;2.53;;
33074;SDS011;19433;51.292;6.868;2023-08-31T11:36:17;3.20;;;1.47;;
33074;SDS011;19433;51.292;6.868;2023-08-31T11:38:43;5.80;;;1.77;;
33074;SDS011;19433;51.292;6.868;2023-08-31T11:41:09;2.37;;;1.97;;
33074;SDS011;19433;51.292;6.868;2023-08-31T11:43:34;2.23;;;1.60;;
33074;SDS011;19433;51.292;6.868;2023-08-31T11:46:00;2.13;;;1.90;;
33074;SDS011;19433;51.292;6.868;2023-08-31T11:48:26;3.27;;;1.93;;
33074;SDS011;19433;51.292;6.868;2023-08-31T11:50:52;1.83;;;1.70;;
33074;SDS011;19433;51.292;6.868;2023-08-31T11:53:18;3.20;;;1.97;;
33074;SDS011;19433;51.292;6.868;2023-08-31T11:55:50;3.40;;;1.67;;
33074;SDS011;19433;51.292;6.868;2023-08-31T11:58:16;5.63;;;1.70;;
33074;SDS011;19433;51.292;6.868;2023-08-31T12:00:45;4.10;;;2.13;;
33074;SDS011;19433;51.292;6.868;2023-08-31T12:03:19;3.40;;;2.27;;
33074;SDS011;19433;51.292;6.868;2023-08-31T12:05:45;4.03;;;2.20;;
33074;SDS011;19433;51.292;6.868;2023-08-31T12:08:11;3.33;;;2.30;;
33074;SDS011;19433;51.292;6.868;2023-08-31T12:10:40;5.50;;;2.10;;
33074;SDS011;19433;51.292;6.868;2023-08-31T12:13:10;3.17;;;2.10;;
33074;SDS011;19433;51.292;6.868;2023-08-31T12:15:37;3.57;;;2.23;;
33074;SDS011;19433;51.292;6.868;2023-08-31T12:20:42;4.67;;;3.20;;
33074;SDS011;19433;51.292;6.868;2023-08-31T12:23:17;2.50;;;2.30;;
33074;SDS011;19433;51.292;6.868;2023-08-31T12:25:49;2.73;;;2.23;;
33074;SDS011;19433;51.292;6.868;2023-08-31T12:28:19;3.00;;;2.13;;
33074;SDS011;19433;51.292;6.868;2023-08-31T12:30:54;4.07;;;2.50;;
33074;SDS011;19433;51.292;6.868;2023-08-31T12:33:23;3.33;;;2.30;;
33074;SDS011;19433;51.292;6.868;2023-08-31T12:35:48;2.63;;;2.20;;
33074;SDS011;19433;51.292;6.868;2023-08-31T12:38:14;4.60;;;2.77;;
33074;SDS011;19433;51.292;6.868;2023-08-31T12:40:39;5.33;;;2.23;;
33074;SDS011;19433;51.292;6.868;2023-08-31T12:43:05;5.10;;;1.93;;
33074;SDS011;19433;51.292;6.868;2023-08-31T12:45:30;3.17;;;2.10;;
33074;SDS011;19433;51.292;6.868;2023-08-31T12:47:56;3.87;;;2.50;;
33074;SDS011;19433;51.292;6.868;2023-08-31T12:50:21;3.33;;;2.03;;
33074;SDS011;19433;51.292;6.868;2023-08-31T12:52:46;3.37;;;1.60;;
33074;SDS011;19433;51.292;6.868;2023-08-31T12:55:21;4.93;;;3.20;;
33074;SDS011;19433;51.292;6.868;2023-08-31T12:57:46;3.30;;;2.07;;
33074;SDS011;19433;51.292;6.868;2023-08-31T13:00:12;2.23;;;1.63;;
33074;SDS011;19433;51.292;6.868;2023-08-31T13:02:39;3.20;;;1.70;;
33074;SDS011;19433;51.292;6.868;2023-08-31T13:05:05;3.50;;;1.70;;
33074;SDS011;19433;51.292;6.868;2023-08-31T13:07:31;4.37;;;1.77;;
33074;SDS011;19433;51.292;6.868;2023-08-31T13:09:57;2.80;;;1.83;;
33074;SDS011;19433;51.292;6.868;2023-08-31T13:12:24;2.77;;;1.53;;
33074;SDS011;19433;51.292;6.868;2023-08-31T13:14:50;2.30;;;1.37;;
33074;SDS011;19433;51.292;6.868;2023-08-31T13:17:15;1.73;;;1.20;;
33074;SDS011;19433;51.292;6.868;2023-08-31T13:19:40;2.73;;;1.50;;
33074;SDS011;19433;51.292;6.868;2023-08-31T13:22:05;2.00;;;1.57;;
33074;SDS011;19433;51.292;6.868;2023-08-31T13:24:31;3.00;;;1.80;;
33074;SDS011;19433;51.292;6.868;2023-08-31T13:26:56;3.20;;;2.13;;
33074;SDS011;19433;51.292;6.868;2023-08-31T13:29:22;4.27;;;1.90;;
33074;SDS011;19433;51.292;6.868;2023-08-31T13:31:47;2.60;;;1.63;;
33074;SDS011;19433;51.292;6.868;2023-08-31T13:34:12;3.70;;;2.40;;
33074;SDS011;19433;51.292;6.868;2023-08-31T13:36:40;3.63;;;1.93;;
33074;SDS011;19433;51.292;6.868;2023-08-31T13:39:06;3.23;;;1.63;;
33074;SDS011;19433;51.292;6.868;2023-08-31T13:41:32;3.37;;;1.80;;
33074;SDS011;19433;51.292;6.868;2023-08-31T13:43:57;2.40;;;1.57;;
33074;SDS011;19433;51.292;6.868;2023-08-31T13:46:22;2.83;;;1.67;;
33074;SDS011;19433;51.292;6.868;2023-08-31T13:48:48;1.90;;;1.50;;
33074;SDS011;19433;51.292;6.868;2023-08-31T13:51:13;3.97;;;1.60;;
33074;SDS011;19433;51.292;6.868;2023-08-31T13:53:38;2.80;;;1.60;;
33074;SDS011;19433;51.292;6.868;2023-08-31T13:56:04;3.00;;;1.90;;
33074;SDS011;19433;51.292;6.868;2023-08-31T13:58:29;3.23;;;1.60;;
33074;SDS011;19433;51.292;6.868;2023-08-31T14:00:54;1.93;;;1.67;;
33074;SDS011;19433;51.292;6.868;2023-08-31T14:03:19;1.90;;;1.40;;
33074;SDS011;19433;51.292;6.868;2023-08-31T14:05:48;1.57;;;1.47;;
33074;SDS011;19433;51.292;6.868;2023-08-31T14:08:14;3.03;;;1.53;;
33074;SDS011;19433;51.292;6.868;2023-08-31T14:10:39;3.77;;;2.00;;
33074;SDS011;19433;51.292;6.868;2023-08-31T14:13:05;2.10;;;1.40;;
33074;SDS011;19433;51.292;6.868;2023-08-31T14:15:30;1.17;;;1.07;;
33074;SDS011;19433;51.292;6.868;2023-08-31T14:17:56;1.67;;;1.30;;
33074;SDS011;19433;51.292;6.868;2023-08-31T14:20:21;2.20;;;1.77;;
33074;SDS011;19433;51.292;6.868;2023-08-31T14:22:47;5.40;;;1.70;;
33074;SDS011;19433;51.292;6.868;2023-08-31T14:25:13;4.13;;;2.03;;
33074;SDS011;19433;51.292;6.868;2023-08-31T14:27:38;1.60;;;1.30;;
33074;SDS011;19433;51.292;6.868;2023-08-31T14:30:04;2.53;;;1.47;;
33074;SDS011;19433;51.292;6.868;2023-08-31T14:32:31;4.43;;;1.73;;
33074;SDS011;19433;51.292;6.868;2023-08-31T14:34:56;3.33;;;1.30;;
33074;SDS011;19433;51.292;6.868;2023-08-31T14:37:22;2.50;;;1.47;;
33074;SDS011;19433;51.292;6.868;2023-08-31T14:39:47;3.00;;;2.00;;
33074;SDS011;19433;51.292;6.868;2023-08-31T14:42:12;4.17;;;1.57;;
33074;SDS011;19433;51.292;6.868;2023-08-31T14:44:40;3.40;;;1.33;;
33074;SDS011;19433;51.292;6.868;2023-08-31T14:47:05;3.23;;;1.97;;
33074;SDS011;19433;51.292;6.868;2023-08-31T14:49:30;2.37;;;1.70;;
33074;SDS011;19433;51.292;6.868;2023-08-31T14:51:56;1.70;;;1.60;;
33074;SDS011;19433;51.292;6.868;2023-08-31T14:54:22;5.13;;;2.23;;
33074;SDS011;19433;51.292;6.868;2023-08-31T14:56:48;2.53;;;1.87;;
33074;SDS011;19433;51.292;6.868;2023-08-31T14:59:14;6.73;;;2.67;;
33074;SDS011;19433;51.292;6.868;2023-08-31T15:01:39;3.40;;;2.03;;
33074;SDS011;19433;51.292;6.868;2023-08-31T15:04:04;4.33;;;2.43;;
33074;SDS011;19433;51.292;6.868;2023-08-31T15:06:30;6.33;;;2.47;;
33074;SDS011;19433;51.292;6.868;2023-08-31T15:08:57;3.80;;;3.23;;
33074;SDS011;19433;51.292;6.868;2023-08-31T15:11:25;4.30;;;3.30;;
33074;SDS011;19433;51.292;6.868;2023-08-31T15:13:51;3.10;;;2.60;;
33074;SDS011;19433;51.292;6.868;2023-08-31T15:16:17;2.27;;;2.03;;